臺北終端管制區 - 桃園北區雷達席

METAR RCTP 161830Z 06012KT 9000 -RA FEW006 BKN009 BKN030 17/17 Q1012 NOSIG RMK A2991(G)=

站台狀態:Offline
最後更新:2022-05-17 02:30:02